This is the latest recevied weather packets stored in our database for station/object OM6ACB-6. If no packets are shown the sender has not sent any weather packets the latest 10 day(s).
| Time | Temp. | Humidity | Pressure | Rain* | Wind** | Luminosity | Snow |
|---|---|---|---|---|---|---|---|
| 1777564259 | 12.78° C | 26% | 1028 hPa | 0 mm | - | - | - |
| 1777563659 | 12.78° C | 26% | 1027.9 hPa | 0 mm | - | - | - |
| 1777563058 | 13.33° C | 26% | 1028 hPa | 0 mm | - | - | - |
| 1777562458 | 13.33° C | 26% | 1028 hPa | 0 mm | - | - | - |
| 1777561858 | 12.78° C | 26% | 1028 hPa | 0 mm | - | - | - |
| 1777558256 | 14.44° C | 25% | 1028.1 hPa | 0 mm | - | - | - |
| 1777557656 | 13.33° C | 26% | 1028.1 hPa | 0 mm | - | - | - |
| 1777557055 | 15.56° C | 25% | 1028.5 hPa | 0 mm | - | - | - |
| 1777555855 | 13.89° C | 26% | 1028.4 hPa | 0 mm | - | - | - |
| 1777555255 | 12.22° C | 26% | 1028.6 hPa | 0 mm | - | - | - |
| 1777554654 | 13.89° C | 26% | 1028.7 hPa | 0 mm | - | - | - |
| 1777554054 | 13.33° C | 26% | 1028.7 hPa | 0 mm | - | - | - |
| 1777553454 | 15.56° C | 25% | 1029.2 hPa | 0 mm | - | - | - |
| 1777552253 | 14.44° C | 25% | 1029.2 hPa | 0 mm | - | - | - |
| 1777551653 | 13.89° C | 26% | 1029.3 hPa | 0 mm | - | - | - |
| 1777549252 | 12.78° C | 26% | 1029.4 hPa | 0 mm | - | - | - |
| 1777548051 | 12.22° C | 27% | 1029.4 hPa | 0 mm | - | - | - |
| 1777547451 | 12.78° C | 26% | 1029.6 hPa | 0 mm | - | - | - |
| 1777545650 | 11.67° C | 27% | 1029.5 hPa | 0 mm | - | - | - |
| 1777545049 | 12.22° C | 26% | 1029.7 hPa | 0 mm | - | - | - |
| 1777544449 | 12.22° C | 26% | 1029.8 hPa | 0 mm | - | - | - |
| 1777543849 | 11.11° C | 27% | 1029.7 hPa | 0 mm | - | - | - |
| 1777543249 | 12.78° C | 26% | 1030 hPa | 0 mm | - | - | - |
| 1777542648 | 10.56° C | 27% | 1029.9 hPa | 0 mm | - | - | - |
| 1777542048 | 11.67° C | 27% | 1029.8 hPa | 0 mm | - | - | - |
* Rain latest hour (hover to see other rain measurements)
** Current wind speed in m/s (hover to see current wind gust speed)